sensor_id;sensor_type;location;lat;lon;timestamp;temperature;humidity
4795;DHT22;2411;47.060;15.064;2023-08-21T00:01:54;18.80;99.90
4795;DHT22;2411;47.060;15.064;2023-08-21T00:04:21;18.80;99.90
4795;DHT22;2411;47.060;15.064;2023-08-21T00:06:49;18.90;99.90
4795;DHT22;2411;47.060;15.064;2023-08-21T00:09:16;18.90;99.90
4795;DHT22;2411;47.060;15.064;2023-08-21T00:11:43;18.80;99.90
4795;DHT22;2411;47.060;15.064;2023-08-21T00:14:11;18.70;99.90
4795;DHT22;2411;47.060;15.064;2023-08-21T00:16:38;18.70;99.90
4795;DHT22;2411;47.060;15.064;2023-08-21T00:19:05;18.70;99.90
4795;DHT22;2411;47.060;15.064;2023-08-21T00:21:33;18.70;99.90
4795;DHT22;2411;47.060;15.064;2023-08-21T00:24:00;18.60;99.90
4795;DHT22;2411;47.060;15.064;2023-08-21T00:26:27;18.70;99.90
4795;DHT22;2411;47.060;15.064;2023-08-21T00:28:54;18.90;99.90
4795;DHT22;2411;47.060;15.064;2023-08-21T00:31:22;19.00;99.90
4795;DHT22;2411;47.060;15.064;2023-08-21T00:33:49;19.00;99.90
4795;DHT22;2411;47.060;15.064;2023-08-21T00:36:16;18.90;99.90
4795;DHT22;2411;47.060;15.064;2023-08-21T00:38:44;18.80;99.90
4795;DHT22;2411;47.060;15.064;2023-08-21T00:41:11;18.50;99.90
4795;DHT22;2411;47.060;15.064;2023-08-21T00:43:39;18.50;99.90
4795;DHT22;2411;47.060;15.064;2023-08-21T00:46:06;18.50;99.90
4795;DHT22;2411;47.060;15.064;2023-08-21T00:48:34;18.50;99.90
4795;DHT22;2411;47.060;15.064;2023-08-21T00:51:02;18.70;99.90
4795;DHT22;2411;47.060;15.064;2023-08-21T00:53:30;18.70;99.90
4795;DHT22;2411;47.060;15.064;2023-08-21T00:55:57;18.70;99.90
4795;DHT22;2411;47.060;15.064;2023-08-21T00:58:25;18.60;99.90
4795;DHT22;2411;47.060;15.064;2023-08-21T01:00:52;18.70;99.90
4795;DHT22;2411;47.060;15.064;2023-08-21T01:03:20;18.70;99.90
4795;DHT22;2411;47.060;15.064;2023-08-21T01:05:48;18.60;99.90
4795;DHT22;2411;47.060;15.064;2023-08-21T01:11:06;18.60;99.90
4795;DHT22;2411;47.060;15.064;2023-08-21T01:16:15;18.70;99.90
4795;DHT22;2411;47.060;15.064;2023-08-21T01:18:45;18.80;99.90
4795;DHT22;2411;47.060;15.064;2023-08-21T01:21:15;18.70;99.90
4795;DHT22;2411;47.060;15.064;2023-08-21T01:23:42;18.60;99.90
4795;DHT22;2411;47.060;15.064;2023-08-21T01:26:10;18.60;99.90
4795;DHT22;2411;47.060;15.064;2023-08-21T01:28:38;18.50;99.90
4795;DHT22;2411;47.060;15.064;2023-08-21T01:31:13;18.40;99.90
4795;DHT22;2411;47.060;15.064;2023-08-21T01:34:04;18.30;99.90
4795;DHT22;2411;47.060;15.064;2023-08-21T01:36:32;18.50;99.90
4795;DHT22;2411;47.060;15.064;2023-08-21T01:39:01;18.50;99.90
4795;DHT22;2411;47.060;15.064;2023-08-21T01:41:28;18.50;99.90
4795;DHT22;2411;47.060;15.064;2023-08-21T01:43:56;18.50;99.90
4795;DHT22;2411;47.060;15.064;2023-08-21T01:46:23;18.50;99.90
4795;DHT22;2411;47.060;15.064;2023-08-21T01:48:50;18.60;99.90
4795;DHT22;2411;47.060;15.064;2023-08-21T01:51:17;18.60;99.90
4795;DHT22;2411;47.060;15.064;2023-08-21T01:53:45;18.70;99.90
4795;DHT22;2411;47.060;15.064;2023-08-21T01:56:12;18.50;99.90
4795;DHT22;2411;47.060;15.064;2023-08-21T01:58:39;18.40;99.90
4795;DHT22;2411;47.060;15.064;2023-08-21T02:01:06;18.40;99.90
4795;DHT22;2411;47.060;15.064;2023-08-21T02:03:34;18.40;99.90
4795;DHT22;2411;47.060;15.064;2023-08-21T02:06:03;18.30;99.90
4795;DHT22;2411;47.060;15.064;2023-08-21T02:08:31;18.30;99.90
4795;DHT22;2411;47.060;15.064;2023-08-21T02:11:02;18.30;99.90
4795;DHT22;2411;47.060;15.064;2023-08-21T02:13:29;18.30;99.90
4795;DHT22;2411;47.060;15.064;2023-08-21T02:15:57;18.20;99.90
4795;DHT22;2411;47.060;15.064;2023-08-21T02:18:24;18.20;99.90
4795;DHT22;2411;47.060;15.064;2023-08-21T02:20:51;18.20;99.90
4795;DHT22;2411;47.060;15.064;2023-08-21T02:23:19;18.20;99.90
4795;DHT22;2411;47.060;15.064;2023-08-21T02:25:46;18.30;99.90
4795;DHT22;2411;47.060;15.064;2023-08-21T02:28:13;18.40;99.90
4795;DHT22;2411;47.060;15.064;2023-08-21T02:30:41;18.40;99.90
4795;DHT22;2411;47.060;15.064;2023-08-21T02:33:09;18.20;99.90
4795;DHT22;2411;47.060;15.064;2023-08-21T02:35:36;18.30;99.90
4795;DHT22;2411;47.060;15.064;2023-08-21T02:38:04;18.20;99.90
4795;DHT22;2411;47.060;15.064;2023-08-21T02:40:31;18.10;99.90
4795;DHT22;2411;47.060;15.064;2023-08-21T02:42:58;18.20;99.90
4795;DHT22;2411;47.060;15.064;2023-08-21T02:45:25;18.30;99.90
4795;DHT22;2411;47.060;15.064;2023-08-21T02:47:53;18.30;99.90
4795;DHT22;2411;47.060;15.064;2023-08-21T02:50:20;18.20;99.90
4795;DHT22;2411;47.060;15.064;2023-08-21T02:52:48;18.20;99.90
4795;DHT22;2411;47.060;15.064;2023-08-21T02:55:15;18.20;99.90
4795;DHT22;2411;47.060;15.064;2023-08-21T02:57:42;18.10;99.90
4795;DHT22;2411;47.060;15.064;2023-08-21T03:00:10;18.10;99.90
4795;DHT22;2411;47.060;15.064;2023-08-21T03:02:39;18.10;99.90
4795;DHT22;2411;47.060;15.064;2023-08-21T03:05:11;18.00;99.90
4795;DHT22;2411;47.060;15.064;2023-08-21T03:07:39;18.00;99.90
4795;DHT22;2411;47.060;15.064;2023-08-21T03:10:07;17.90;99.90
4795;DHT22;2411;47.060;15.064;2023-08-21T03:12:35;18.10;99.90
4795;DHT22;2411;47.060;15.064;2023-08-21T03:15:03;18.10;99.90
4795;DHT22;2411;47.060;15.064;2023-08-21T03:17:31;18.20;99.90
4795;DHT22;2411;47.060;15.064;2023-08-21T03:19:59;18.30;99.90
4795;DHT22;2411;47.060;15.064;2023-08-21T03:22:26;18.20;99.90
4795;DHT22;2411;47.060;15.064;2023-08-21T03:24:53;18.30;99.90
4795;DHT22;2411;47.060;15.064;2023-08-21T03:27:22;18.30;99.90
4795;DHT22;2411;47.060;15.064;2023-08-21T03:29:49;17.90;99.90
4795;DHT22;2411;47.060;15.064;2023-08-21T03:32:17;17.70;99.90
4795;DHT22;2411;47.060;15.064;2023-08-21T03:34:44;17.70;99.90
4795;DHT22;2411;47.060;15.064;2023-08-21T03:37:12;17.60;99.90
4795;DHT22;2411;47.060;15.064;2023-08-21T03:39:39;17.60;99.90
4795;DHT22;2411;47.060;15.064;2023-08-21T03:42:06;17.60;99.90
4795;DHT22;2411;47.060;15.064;2023-08-21T03:44:34;17.60;99.90
4795;DHT22;2411;47.060;15.064;2023-08-21T03:47:01;17.60;99.90
4795;DHT22;2411;47.060;15.064;2023-08-21T03:49:28;17.70;99.90
4795;DHT22;2411;47.060;15.064;2023-08-21T03:51:56;17.80;99.90
4795;DHT22;2411;47.060;15.064;2023-08-21T03:54:23;17.90;99.90
4795;DHT22;2411;47.060;15.064;2023-08-21T03:56:50;17.90;99.90
4795;DHT22;2411;47.060;15.064;2023-08-21T03:59:18;18.00;99.90
4795;DHT22;2411;47.060;15.064;2023-08-21T04:01:45;18.00;99.90
4795;DHT22;2411;47.060;15.064;2023-08-21T04:04:12;17.90;99.90
4795;DHT22;2411;47.060;15.064;2023-08-21T04:06:40;18.00;99.90
4795;DHT22;2411;47.060;15.064;2023-08-21T04:09:07;18.00;99.90
4795;DHT22;2411;47.060;15.064;2023-08-21T04:11:34;18.00;99.90
4795;DHT22;2411;47.060;15.064;2023-08-21T04:14:02;17.80;99.90
4795;DHT22;2411;47.060;15.064;2023-08-21T04:16:30;17.70;99.90
4795;DHT22;2411;47.060;15.064;2023-08-21T04:18:57;17.70;99.90
4795;DHT22;2411;47.060;15.064;2023-08-21T04:21:25;17.80;99.90
4795;DHT22;2411;47.060;15.064;2023-08-21T04:23:52;17.80;99.90
4795;DHT22;2411;47.060;15.064;2023-08-21T04:26:20;17.80;99.90
4795;DHT22;2411;47.060;15.064;2023-08-21T04:28:47;17.90;99.90
4795;DHT22;2411;47.060;15.064;2023-08-21T04:31:15;17.90;99.90
4795;DHT22;2411;47.060;15.064;2023-08-21T04:33:42;18.00;99.90
4795;DHT22;2411;47.060;15.064;2023-08-21T04:36:15;18.00;99.90
4795;DHT22;2411;47.060;15.064;2023-08-21T04:38:43;18.00;99.90
4795;DHT22;2411;47.060;15.064;2023-08-21T04:41:11;18.10;99.90
4795;DHT22;2411;47.060;15.064;2023-08-21T04:43:38;18.30;99.90
4795;DHT22;2411;47.060;15.064;2023-08-21T04:46:05;18.30;99.90
4795;DHT22;2411;47.060;15.064;2023-08-21T04:48:33;18.40;99.90
4795;DHT22;2411;47.060;15.064;2023-08-21T04:51:00;18.50;99.90
4795;DHT22;2411;47.060;15.064;2023-08-21T04:53:28;18.60;99.90
4795;DHT22;2411;47.060;15.064;2023-08-21T04:55:58;18.80;99.90
4795;DHT22;2411;47.060;15.064;2023-08-21T04:58:26;18.70;99.90
4795;DHT22;2411;47.060;15.064;2023-08-21T05:00:53;18.60;99.90
4795;DHT22;2411;47.060;15.064;2023-08-21T05:03:21;18.60;99.90
4795;DHT22;2411;47.060;15.064;2023-08-21T05:05:57;18.70;99.90
4795;DHT22;2411;47.060;15.064;2023-08-21T05:08:25;18.70;99.90
4795;DHT22;2411;47.060;15.064;2023-08-21T05:10:59;18.70;99.90
4795;DHT22;2411;47.060;15.064;2023-08-21T05:13:27;18.70;99.90
4795;DHT22;2411;47.060;15.064;2023-08-21T05:15:56;18.90;99.90
4795;DHT22;2411;47.060;15.064;2023-08-21T05:18:24;18.90;99.90
4795;DHT22;2411;47.060;15.064;2023-08-21T05:20:54;19.00;99.90
4795;DHT22;2411;47.060;15.064;2023-08-21T05:23:22;19.10;99.90
4795;DHT22;2411;47.060;15.064;2023-08-21T05:25:49;19.20;99.90
4795;DHT22;2411;47.060;15.064;2023-08-21T05:28:17;19.20;99.90
4795;DHT22;2411;47.060;15.064;2023-08-21T05:30:46;19.30;99.90
4795;DHT22;2411;47.060;15.064;2023-08-21T05:33:15;19.40;99.90
4795;DHT22;2411;47.060;15.064;2023-08-21T05:35:42;19.60;99.90
4795;DHT22;2411;47.060;15.064;2023-08-21T05:38:09;19.70;99.90
4795;DHT22;2411;47.060;15.064;2023-08-21T05:40:37;19.80;99.90
4795;DHT22;2411;47.060;15.064;2023-08-21T05:43:04;19.90;99.90
4795;DHT22;2411;47.060;15.064;2023-08-21T05:45:31;20.00;99.90
4795;DHT22;2411;47.060;15.064;2023-08-21T05:47:59;20.10;99.90
4795;DHT22;2411;47.060;15.064;2023-08-21T05:50:26;20.20;99.90
4795;DHT22;2411;47.060;15.064;2023-08-21T05:52:54;20.40;99.90
4795;DHT22;2411;47.060;15.064;2023-08-21T05:55:21;20.40;99.90
4795;DHT22;2411;47.060;15.064;2023-08-21T05:57:49;20.60;99.90
4795;DHT22;2411;47.060;15.064;2023-08-21T06:00:16;20.70;99.90
4795;DHT22;2411;47.060;15.064;2023-08-21T06:02:44;20.80;99.90
4795;DHT22;2411;47.060;15.064;2023-08-21T06:05:11;20.90;99.90
4795;DHT22;2411;47.060;15.064;2023-08-21T06:07:38;21.00;99.90
4795;DHT22;2411;47.060;15.064;2023-08-21T06:10:08;21.10;99.90
4795;DHT22;2411;47.060;15.064;2023-08-21T06:12:40;21.20;99.90
4795;DHT22;2411;47.060;15.064;2023-08-21T06:15:08;21.30;99.90
4795;DHT22;2411;47.060;15.064;2023-08-21T06:17:36;21.40;99.90
4795;DHT22;2411;47.060;15.064;2023-08-21T06:20:05;21.50;99.90
4795;DHT22;2411;47.060;15.064;2023-08-21T06:22:33;21.70;99.90
4795;DHT22;2411;47.060;15.064;2023-08-21T06:25:00;21.70;99.90
4795;DHT22;2411;47.060;15.064;2023-08-21T06:27:27;21.80;99.90
4795;DHT22;2411;47.060;15.064;2023-08-21T06:29:54;22.00;99.90
4795;DHT22;2411;47.060;15.064;2023-08-21T06:32:22;22.10;99.90
4795;DHT22;2411;47.060;15.064;2023-08-21T06:34:49;22.10;99.90
4795;DHT22;2411;47.060;15.064;2023-08-21T06:37:16;22.30;99.90
4795;DHT22;2411;47.060;15.064;2023-08-21T06:39:44;22.30;99.90
4795;DHT22;2411;47.060;15.064;2023-08-21T06:42:11;22.50;99.90
4795;DHT22;2411;47.060;15.064;2023-08-21T06:44:39;22.60;99.90
4795;DHT22;2411;47.060;15.064;2023-08-21T06:47:06;22.70;99.90
4795;DHT22;2411;47.060;15.064;2023-08-21T06:49:34;22.80;99.90
4795;DHT22;2411;47.060;15.064;2023-08-21T06:52:01;22.90;99.90
4795;DHT22;2411;47.060;15.064;2023-08-21T06:54:30;23.00;99.90
4795;DHT22;2411;47.060;15.064;2023-08-21T06:56:57;23.10;99.90
4795;DHT22;2411;47.060;15.064;2023-08-21T06:59:25;23.30;99.90
4795;DHT22;2411;47.060;15.064;2023-08-21T07:01:52;23.30;99.90
4795;DHT22;2411;47.060;15.064;2023-08-21T07:04:20;23.40;99.90
4795;DHT22;2411;47.060;15.064;2023-08-21T07:06:47;23.50;99.90
4795;DHT22;2411;47.060;15.064;2023-08-21T07:09:15;23.60;99.90
4795;DHT22;2411;47.060;15.064;2023-08-21T07:11:42;23.70;99.90
4795;DHT22;2411;47.060;15.064;2023-08-21T07:14:09;23.90;99.90
4795;DHT22;2411;47.060;15.064;2023-08-21T07:16:40;24.00;99.90
4795;DHT22;2411;47.060;15.064;2023-08-21T07:19:07;24.10;99.90
4795;DHT22;2411;47.060;15.064;2023-08-21T07:21:34;24.20;99.90
4795;DHT22;2411;47.060;15.064;2023-08-21T07:24:03;24.30;99.90
4795;DHT22;2411;47.060;15.064;2023-08-21T07:26:31;24.40;99.90
4795;DHT22;2411;47.060;15.064;2023-08-21T07:28:58;24.60;99.90
4795;DHT22;2411;47.060;15.064;2023-08-21T07:31:26;24.70;99.90
4795;DHT22;2411;47.060;15.064;2023-08-21T07:33:54;24.80;99.90
4795;DHT22;2411;47.060;15.064;2023-08-21T07:36:21;24.90;99.90
4795;DHT22;2411;47.060;15.064;2023-08-21T07:38:49;24.90;99.90
4795;DHT22;2411;47.060;15.064;2023-08-21T07:41:17;25.10;99.90
4795;DHT22;2411;47.060;15.064;2023-08-21T07:43:44;25.20;99.90
4795;DHT22;2411;47.060;15.064;2023-08-21T07:46:12;25.30;99.90
4795;DHT22;2411;47.060;15.064;2023-08-21T07:48:45;25.40;99.90
4795;DHT22;2411;47.060;15.064;2023-08-21T07:51:13;25.50;99.90
4795;DHT22;2411;47.060;15.064;2023-08-21T07:53:41;25.50;99.90
4795;DHT22;2411;47.060;15.064;2023-08-21T07:56:08;25.60;99.90
4795;DHT22;2411;47.060;15.064;2023-08-21T07:58:36;25.80;99.90
4795;DHT22;2411;47.060;15.064;2023-08-21T08:01:03;25.80;99.90
4795;DHT22;2411;47.060;15.064;2023-08-21T08:03:32;25.90;99.90
4795;DHT22;2411;47.060;15.064;2023-08-21T08:05:59;26.10;99.90
4795;DHT22;2411;47.060;15.064;2023-08-21T08:08:27;26.20;99.90
4795;DHT22;2411;47.060;15.064;2023-08-21T08:11:01;26.30;99.90
4795;DHT22;2411;47.060;15.064;2023-08-21T08:13:28;26.40;99.90
4795;DHT22;2411;47.060;15.064;2023-08-21T08:15:56;26.50;99.90
4795;DHT22;2411;47.060;15.064;2023-08-21T08:18:23;26.60;99.90
4795;DHT22;2411;47.060;15.064;2023-08-21T08:20:50;26.60;99.90
4795;DHT22;2411;47.060;15.064;2023-08-21T08:23:17;26.70;99.90
4795;DHT22;2411;47.060;15.064;2023-08-21T08:25:47;26.70;99.90
4795;DHT22;2411;47.060;15.064;2023-08-21T08:28:15;26.80;99.90
4795;DHT22;2411;47.060;15.064;2023-08-21T08:30:42;26.90;99.90
4795;DHT22;2411;47.060;15.064;2023-08-21T08:33:09;27.00;99.90
4795;DHT22;2411;47.060;15.064;2023-08-21T08:35:37;27.20;99.90
4795;DHT22;2411;47.060;15.064;2023-08-21T08:38:04;27.20;99.90
4795;DHT22;2411;47.060;15.064;2023-08-21T08:40:32;27.30;99.90
4795;DHT22;2411;47.060;15.064;2023-08-21T08:43:00;27.40;99.90
4795;DHT22;2411;47.060;15.064;2023-08-21T08:45:32;27.50;99.90
4795;DHT22;2411;47.060;15.064;2023-08-21T08:48:00;27.60;99.90
4795;DHT22;2411;47.060;15.064;2023-08-21T08:50:34;27.70;99.90
4795;DHT22;2411;47.060;15.064;2023-08-21T08:53:01;27.90;99.90
4795;DHT22;2411;47.060;15.064;2023-08-21T08:55:43;27.80;99.90
4795;DHT22;2411;47.060;15.064;2023-08-21T08:58:11;28.00;99.90
4795;DHT22;2411;47.060;15.064;2023-08-21T09:00:38;28.10;99.90
4795;DHT22;2411;47.060;15.064;2023-08-21T09:03:06;28.20;99.90
4795;DHT22;2411;47.060;15.064;2023-08-21T09:05:34;28.30;99.90
4795;DHT22;2411;47.060;15.064;2023-08-21T09:08:03;28.40;99.90
4795;DHT22;2411;47.060;15.064;2023-08-21T09:10:31;28.40;99.90
4795;DHT22;2411;47.060;15.064;2023-08-21T09:12:58;28.50;99.90
4795;DHT22;2411;47.060;15.064;2023-08-21T09:15:29;28.50;99.90
4795;DHT22;2411;47.060;15.064;2023-08-21T09:18:11;28.70;99.90
4795;DHT22;2411;47.060;15.064;2023-08-21T09:20:39;28.70;99.40
4795;DHT22;2411;47.060;15.064;2023-08-21T09:23:06;28.80;99.90
4795;DHT22;2411;47.060;15.064;2023-08-21T09:25:35;28.80;98.90
4795;DHT22;2411;47.060;15.064;2023-08-21T09:28:05;28.90;98.50
4795;DHT22;2411;47.060;15.064;2023-08-21T09:30:47;28.90;97.50
4795;DHT22;2411;47.060;15.064;2023-08-21T09:33:19;29.00;97.80
4795;DHT22;2411;47.060;15.064;2023-08-21T09:35:48;29.10;96.80
4795;DHT22;2411;47.060;15.064;2023-08-21T09:38:15;29.20;95.90
4795;DHT22;2411;47.060;15.064;2023-08-21T09:40:50;29.30;96.00
4795;DHT22;2411;47.060;15.064;2023-08-21T09:43:24;29.40;92.30
4795;DHT22;2411;47.060;15.064;2023-08-21T09:45:53;29.50;93.60
4795;DHT22;2411;47.060;15.064;2023-08-21T09:48:24;29.50;91.40
4795;DHT22;2411;47.060;15.064;2023-08-21T09:50:54;29.50;94.00
4795;DHT22;2411;47.060;15.064;2023-08-21T09:53:22;29.50;90.90
4795;DHT22;2411;47.060;15.064;2023-08-21T09:55:53;29.50;94.10
4795;DHT22;2411;47.060;15.064;2023-08-21T09:58:21;29.60;91.90
4795;DHT22;2411;47.060;15.064;2023-08-21T10:00:49;29.70;92.70
4795;DHT22;2411;47.060;15.064;2023-08-21T10:03:20;29.60;92.70
4795;DHT22;2411;47.060;15.064;2023-08-21T10:05:49;29.50;92.10
4795;DHT22;2411;47.060;15.064;2023-08-21T10:08:23;29.70;93.10
4795;DHT22;2411;47.060;15.064;2023-08-21T10:10:51;29.70;92.20
4795;DHT22;2411;47.060;15.064;2023-08-21T10:13:18;29.80;92.80
4795;DHT22;2411;47.060;15.064;2023-08-21T10:15:46;29.90;93.60
4795;DHT22;2411;47.060;15.064;2023-08-21T10:18:23;29.90;92.60
4795;DHT22;2411;47.060;15.064;2023-08-21T10:20:53;30.00;93.20
4795;DHT22;2411;47.060;15.064;2023-08-21T10:23:29;30.10;93.20
4795;DHT22;2411;47.060;15.064;2023-08-21T10:25:58;30.20;91.90
4795;DHT22;2411;47.060;15.064;2023-08-21T10:29:04;30.20;91.80
4795;DHT22;2411;47.060;15.064;2023-08-21T10:31:38;30.20;92.00
4795;DHT22;2411;47.060;15.064;2023-08-21T10:34:09;30.30;91.10
4795;DHT22;2411;47.060;15.064;2023-08-21T10:39:13;30.40;90.50
4795;DHT22;2411;47.060;15.064;2023-08-21T10:41:53;30.40;89.80
4795;DHT22;2411;47.060;15.064;2023-08-21T10:44:53;30.40;87.60
4795;DHT22;2411;47.060;15.064;2023-08-21T10:49:59;30.60;87.30
4795;DHT22;2411;47.060;15.064;2023-08-21T10:52:34;30.50;86.60
4795;DHT22;2411;47.060;15.064;2023-08-21T10:55:03;30.60;87.20
4795;DHT22;2411;47.060;15.064;2023-08-21T10:57:32;30.50;85.80
4795;DHT22;2411;47.060;15.064;2023-08-21T11:00:05;30.60;87.20
4795;DHT22;2411;47.060;15.064;2023-08-21T11:02:41;30.80;86.50
4795;DHT22;2411;47.060;15.064;2023-08-21T11:05:09;30.80;89.20
4795;DHT22;2411;47.060;15.064;2023-08-21T11:07:45;30.80;84.70
4795;DHT22;2411;47.060;15.064;2023-08-21T11:10:15;31.00;83.10
4795;DHT22;2411;47.060;15.064;2023-08-21T11:12:54;31.00;84.20
4795;DHT22;2411;47.060;15.064;2023-08-21T11:15:26;31.00;81.10
4795;DHT22;2411;47.060;15.064;2023-08-21T11:17:59;31.10;83.60
4795;DHT22;2411;47.060;15.064;2023-08-21T11:20:31;31.10;82.60
4795;DHT22;2411;47.060;15.064;2023-08-21T11:23:00;31.10;82.80
4795;DHT22;2411;47.060;15.064;2023-08-21T11:25:30;31.00;80.40
4795;DHT22;2411;47.060;15.064;2023-08-21T11:27:58;31.10;80.50
4795;DHT22;2411;47.060;15.064;2023-08-21T11:30:25;31.10;80.40
4795;DHT22;2411;47.060;15.064;2023-08-21T11:33:12;31.20;80.30
4795;DHT22;2411;47.060;15.064;2023-08-21T11:35:41;31.30;79.10
4795;DHT22;2411;47.060;15.064;2023-08-21T11:38:22;31.20;80.30
4795;DHT22;2411;47.060;15.064;2023-08-21T11:41:00;31.10;78.20
4795;DHT22;2411;47.060;15.064;2023-08-21T11:43:56;31.10;76.80
4795;DHT22;2411;47.060;15.064;2023-08-21T11:46:28;31.20;78.70
4795;DHT22;2411;47.060;15.064;2023-08-21T11:48:55;31.30;78.20
4795;DHT22;2411;47.060;15.064;2023-08-21T11:51:23;31.30;77.40
4795;DHT22;2411;47.060;15.064;2023-08-21T11:53:50;31.30;77.70
4795;DHT22;2411;47.060;15.064;2023-08-21T11:56:19;31.30;76.80
4795;DHT22;2411;47.060;15.064;2023-08-21T11:58:50;31.30;78.70
4795;DHT22;2411;47.060;15.064;2023-08-21T12:01:21;31.40;77.30
4795;DHT22;2411;47.060;15.064;2023-08-21T12:03:49;31.50;76.40
4795;DHT22;2411;47.060;15.064;2023-08-21T12:06:23;31.30;73.40
4795;DHT22;2411;47.060;15.064;2023-08-21T12:08:52;31.50;74.90
4795;DHT22;2411;47.060;15.064;2023-08-21T12:11:20;31.60;74.20
4795;DHT22;2411;47.060;15.064;2023-08-21T12:13:48;31.50;74.30
4795;DHT22;2411;47.060;15.064;2023-08-21T12:16:15;31.60;72.60
4795;DHT22;2411;47.060;15.064;2023-08-21T12:18:42;31.60;73.50
4795;DHT22;2411;47.060;15.064;2023-08-21T12:21:10;31.80;74.60
4795;DHT22;2411;47.060;15.064;2023-08-21T12:23:37;32.00;76.70
4795;DHT22;2411;47.060;15.064;2023-08-21T12:26:04;32.20;76.50
4795;DHT22;2411;47.060;15.064;2023-08-21T12:28:32;32.10;71.90
4795;DHT22;2411;47.060;15.064;2023-08-21T12:30:59;32.20;73.30
4795;DHT22;2411;47.060;15.064;2023-08-21T12:33:26;32.00;72.00
4795;DHT22;2411;47.060;15.064;2023-08-21T12:35:54;32.00;70.90
4795;DHT22;2411;47.060;15.064;2023-08-21T12:38:21;31.90;70.40
4795;DHT22;2411;47.060;15.064;2023-08-21T12:40:48;31.90;67.80
4795;DHT22;2411;47.060;15.064;2023-08-21T12:43:16;32.00;68.20
4795;DHT22;2411;47.060;15.064;2023-08-21T12:45:43;32.00;69.80
4795;DHT22;2411;47.060;15.064;2023-08-21T12:48:11;32.00;68.40
4795;DHT22;2411;47.060;15.064;2023-08-21T12:50:38;31.90;67.50
4795;DHT22;2411;47.060;15.064;2023-08-21T12:53:06;32.00;67.90
4795;DHT22;2411;47.060;15.064;2023-08-21T12:55:33;32.00;66.10
4795;DHT22;2411;47.060;15.064;2023-08-21T12:58:00;32.10;66.70
4795;DHT22;2411;47.060;15.064;2023-08-21T13:00:28;32.20;67.40
4795;DHT22;2411;47.060;15.064;2023-08-21T13:02:55;32.20;66.00
4795;DHT22;2411;47.060;15.064;2023-08-21T13:05:23;32.20;65.30
4795;DHT22;2411;47.060;15.064;2023-08-21T13:07:50;32.10;67.30
4795;DHT22;2411;47.060;15.064;2023-08-21T13:10:18;32.10;63.00
4795;DHT22;2411;47.060;15.064;2023-08-21T13:12:45;32.20;66.10
4795;DHT22;2411;47.060;15.064;2023-08-21T13:15:13;32.00;64.10
4795;DHT22;2411;47.060;15.064;2023-08-21T13:17:40;32.20;64.40
4795;DHT22;2411;47.060;15.064;2023-08-21T13:20:08;32.00;59.30
4795;DHT22;2411;47.060;15.064;2023-08-21T13:22:51;32.10;61.50
4795;DHT22;2411;47.060;15.064;2023-08-21T13:25:19;32.10;63.00
4795;DHT22;2411;47.060;15.064;2023-08-21T13:27:47;32.00;63.80
4795;DHT22;2411;47.060;15.064;2023-08-21T13:30:15;32.10;65.30
4795;DHT22;2411;47.060;15.064;2023-08-21T13:32:42;32.20;63.50
4795;DHT22;2411;47.060;15.064;2023-08-21T13:35:10;32.20;63.20
4795;DHT22;2411;47.060;15.064;2023-08-21T13:37:39;32.20;66.00
4795;DHT22;2411;47.060;15.064;2023-08-21T13:40:07;32.10;65.50
4795;DHT22;2411;47.060;15.064;2023-08-21T13:42:41;32.20;66.60
4795;DHT22;2411;47.060;15.064;2023-08-21T13:45:09;32.30;66.80
4795;DHT22;2411;47.060;15.064;2023-08-21T13:47:40;32.20;65.40
4795;DHT22;2411;47.060;15.064;2023-08-21T13:50:10;32.20;66.00
4795;DHT22;2411;47.060;15.064;2023-08-21T13:52:37;32.10;67.10
4795;DHT22;2411;47.060;15.064;2023-08-21T13:55:09;32.30;67.70
4795;DHT22;2411;47.060;15.064;2023-08-21T13:57:37;32.20;64.80
4795;DHT22;2411;47.060;15.064;2023-08-21T14:00:07;32.20;64.10
4795;DHT22;2411;47.060;15.064;2023-08-21T14:02:34;32.30;64.40
4795;DHT22;2411;47.060;15.064;2023-08-21T14:05:03;32.30;63.70
4795;DHT22;2411;47.060;15.064;2023-08-21T14:07:35;32.40;65.00
4795;DHT22;2411;47.060;15.064;2023-08-21T14:10:04;32.40;62.60
4795;DHT22;2411;47.060;15.064;2023-08-21T14:12:34;32.30;60.80
4795;DHT22;2411;47.060;15.064;2023-08-21T14:15:04;32.30;58.20
4795;DHT22;2411;47.060;15.064;2023-08-21T14:17:32;32.20;59.60
4795;DHT22;2411;47.060;15.064;2023-08-21T14:20:00;32.10;60.70
4795;DHT22;2411;47.060;15.064;2023-08-21T14:22:27;32.20;60.20
4795;DHT22;2411;47.060;15.064;2023-08-21T14:24:54;32.20;61.00
4795;DHT22;2411;47.060;15.064;2023-08-21T14:27:22;32.20;61.60
4795;DHT22;2411;47.060;15.064;2023-08-21T14:29:49;32.20;59.30
4795;DHT22;2411;47.060;15.064;2023-08-21T14:32:16;32.20;59.30
4795;DHT22;2411;47.060;15.064;2023-08-21T14:34:44;32.20;59.90
4795;DHT22;2411;47.060;15.064;2023-08-21T14:37:11;32.10;60.00
4795;DHT22;2411;47.060;15.064;2023-08-21T14:39:42;32.30;61.40
4795;DHT22;2411;47.060;15.064;2023-08-21T14:42:13;32.40;64.10
4795;DHT22;2411;47.060;15.064;2023-08-21T14:44:40;32.30;62.80
4795;DHT22;2411;47.060;15.064;2023-08-21T14:47:07;32.30;61.60
4795;DHT22;2411;47.060;15.064;2023-08-21T14:49:36;32.40;60.00
4795;DHT22;2411;47.060;15.064;2023-08-21T14:52:04;32.20;63.30
4795;DHT22;2411;47.060;15.064;2023-08-21T14:54:33;32.20;58.80
4795;DHT22;2411;47.060;15.064;2023-08-21T14:57:02;32.20;59.20
4795;DHT22;2411;47.060;15.064;2023-08-21T14:59:32;32.30;60.50
4795;DHT22;2411;47.060;15.064;2023-08-21T15:01:59;32.40;61.70
4795;DHT22;2411;47.060;15.064;2023-08-21T15:04:26;32.30;64.30
4795;DHT22;2411;47.060;15.064;2023-08-21T15:06:54;32.20;63.20
4795;DHT22;2411;47.060;15.064;2023-08-21T15:09:21;32.10;64.80
4795;DHT22;2411;47.060;15.064;2023-08-21T15:11:48;32.10;62.90
4795;DHT22;2411;47.060;15.064;2023-08-21T15:14:16;32.10;61.70
4795;DHT22;2411;47.060;15.064;2023-08-21T15:16:44;32.20;63.40
4795;DHT22;2411;47.060;15.064;2023-08-21T15:19:11;32.00;62.10
4795;DHT22;2411;47.060;15.064;2023-08-21T15:21:38;32.00;61.30
4795;DHT22;2411;47.060;15.064;2023-08-21T15:24:08;32.00;62.80
4795;DHT22;2411;47.060;15.064;2023-08-21T15:26:35;32.00;63.90
4795;DHT22;2411;47.060;15.064;2023-08-21T15:29:03;31.90;66.10
4795;DHT22;2411;47.060;15.064;2023-08-21T15:31:30;31.80;63.70
4795;DHT22;2411;47.060;15.064;2023-08-21T15:33:57;31.80;64.10
4795;DHT22;2411;47.060;15.064;2023-08-21T15:36:24;31.90;66.10
4795;DHT22;2411;47.060;15.064;2023-08-21T15:38:52;31.80;69.20
4795;DHT22;2411;47.060;15.064;2023-08-21T15:41:21;31.80;68.60
4795;DHT22;2411;47.060;15.064;2023-08-21T15:43:48;31.80;68.50
4795;DHT22;2411;47.060;15.064;2023-08-21T15:46:15;31.80;68.50
4795;DHT22;2411;47.060;15.064;2023-08-21T15:48:43;32.10;64.70
4795;DHT22;2411;47.060;15.064;2023-08-21T15:51:10;32.70;65.40
4795;DHT22;2411;47.060;15.064;2023-08-21T15:53:37;33.50;62.80
4795;DHT22;2411;47.060;15.064;2023-08-21T15:56:04;34.20;60.50
4795;DHT22;2411;47.060;15.064;2023-08-21T15:58:32;34.50;62.30
4795;DHT22;2411;47.060;15.064;2023-08-21T16:00:59;34.80;62.50
4795;DHT22;2411;47.060;15.064;2023-08-21T16:03:27;35.10;59.90
4795;DHT22;2411;47.060;15.064;2023-08-21T16:05:55;35.30;59.00